createdAt,value
2023-02-28T00:00:53.258Z,54.72
2023-02-28T00:03:21.957Z,54.72
2023-02-28T00:05:50.368Z,54.57
2023-02-28T00:08:18.780Z,54.60
2023-02-28T00:10:47.441Z,54.50
2023-02-28T00:13:19.923Z,54.31
2023-02-28T00:15:48.333Z,54.11
2023-02-28T00:18:16.712Z,54.16
2023-02-28T00:20:47.454Z,54.29
2023-02-28T00:23:16.446Z,54.37
2023-02-28T00:25:44.826Z,54.36
2023-02-28T00:28:14.142Z,54.16
2023-02-28T00:30:42.815Z,54.07
2023-02-28T00:33:11.506Z,54.16
2023-02-28T00:35:40.041Z,54.35
2023-02-28T00:38:10.618Z,54.34
2023-02-28T00:40:38.997Z,54.58
2023-02-28T00:43:07.696Z,54.63
2023-02-28T00:45:36.410Z,54.55
2023-02-28T00:48:08.346Z,54.80
2023-02-28T00:50:36.722Z,54.64
2023-02-28T00:53:07.760Z,54.83
2023-02-28T00:55:36.553Z,55.03
2023-02-28T00:58:06.497Z,54.93
2023-02-28T01:00:34.977Z,54.70
2023-02-28T01:03:03.445Z,54.66
2023-02-28T01:05:32.028Z,54.76
2023-02-28T01:08:00.522Z,54.54
2023-02-28T01:10:32.685Z,54.48
2023-02-28T01:13:01.368Z,54.57
2023-02-28T01:15:29.975Z,54.57
2023-02-28T01:17:58.435Z,54.45
2023-02-28T01:20:26.944Z,54.67
2023-02-28T01:22:55.427Z,54.65
2023-02-28T01:25:25.256Z,54.77
2023-02-28T01:27:54.850Z,54.63
2023-02-28T01:30:24.256Z,54.89
2023-02-28T01:32:54.889Z,54.62
2023-02-28T01:35:23.276Z,54.64
2023-02-28T01:37:51.732Z,54.62
2023-02-28T01:40:20.927Z,54.54
2023-02-28T01:42:50.641Z,54.21
2023-02-28T01:45:27.623Z,54.06
2023-02-28T01:47:59.481Z,54.25
2023-02-28T01:50:28.491Z,54.35
2023-02-28T01:52:58.253Z,54.62
2023-02-28T01:55:29.953Z,54.67
2023-02-28T01:58:03.448Z,54.39
2023-02-28T02:00:32.567Z,54.39
2023-02-28T02:03:12.527Z,54.19
2023-02-28T02:05:41.640Z,54.47
2023-02-28T02:08:12.979Z,54.46
2023-02-28T02:10:44.146Z,54.50
2023-02-28T02:13:18.762Z,54.50
2023-02-28T02:16:08.363Z,54.35
2023-02-28T02:18:48.155Z,54.40
2023-02-28T02:21:25.242Z,54.39
2023-02-28T02:24:03.967Z,54.28
2023-02-28T02:26:49.747Z,54.08
2023-02-28T02:29:56.735Z,54.30
2023-02-28T02:32:48.154Z,54.62
2023-02-28T02:35:30.709Z,54.52
2023-02-28T02:38:11.337Z,54.77
2023-02-28T02:40:58.500Z,54.57
2023-02-28T02:43:31.683Z,54.65
2023-02-28T02:46:13.675Z,54.52
2023-02-28T02:48:42.036Z,54.07
2023-02-28T02:51:18.749Z,54.25
2023-02-28T02:53:52.501Z,54.41
2023-02-28T02:56:22.558Z,54.56
2023-02-28T02:58:51.855Z,54.64
2023-02-28T03:01:29.644Z,54.53
2023-02-28T03:04:00.851Z,54.51
2023-02-28T03:06:29.387Z,54.52
2023-02-28T03:08:58.690Z,54.83
2023-02-28T03:11:27.594Z,54.61
2023-02-28T03:14:23.915Z,54.64
2023-02-28T03:17:30.691Z,54.67
2023-02-28T03:20:23.206Z,54.59
2023-02-28T03:23:01.872Z,54.49
2023-02-28T03:25:35.367Z,54.31
2023-02-28T03:28:11.731Z,54.50
2023-02-28T03:30:55.164Z,54.81
2023-02-28T03:33:36.246Z,54.80
2023-02-28T03:36:07.945Z,54.38
2023-02-28T03:38:44.680Z,54.42
2023-02-28T03:41:18.847Z,54.54
2023-02-28T03:43:59.673Z,54.41
2023-02-28T03:46:30.103Z,54.41
2023-02-28T03:49:05.171Z,54.50
2023-02-28T03:51:33.862Z,54.59
2023-02-28T03:54:06.509Z,54.85
2023-02-28T03:56:36.314Z,54.98
2023-02-28T03:59:16.103Z,55.04
2023-02-28T04:01:46.226Z,55.07
2023-02-28T04:04:14.935Z,55.25
2023-02-28T04:06:45.320Z,55.16
2023-02-28T04:09:15.887Z,55.12
2023-02-28T04:11:53.218Z,54.99
2023-02-28T04:14:21.636Z,55.05
2023-02-28T04:16:50.097Z,55.23
2023-02-28T04:19:18.590Z,55.09
2023-02-28T04:21:51.750Z,55.03
2023-02-28T04:24:26.656Z,55.21
2023-02-28T04:26:56.754Z,55.13
2023-02-28T04:29:29.930Z,55.06
2023-02-28T04:32:02.006Z,55.21
2023-02-28T04:34:31.929Z,55.45
2023-02-28T04:37:17.246Z,55.19
2023-02-28T04:39:46.286Z,55.09
2023-02-28T04:42:15.815Z,55.19
2023-02-28T04:44:44.096Z,55.02
2023-02-28T04:47:13.063Z,54.99
2023-02-28T04:49:42.820Z,55.15
2023-02-28T04:52:12.617Z,55.18
2023-02-28T04:54:42.953Z,55.08
2023-02-28T04:57:14.541Z,55.39
2023-02-28T04:59:44.969Z,55.46
2023-02-28T05:02:15.092Z,55.47
2023-02-28T05:04:58.045Z,55.26
2023-02-28T05:07:51.732Z,55.33
2023-02-28T05:10:30.570Z,55.46
2023-02-28T05:13:03.845Z,55.48
2023-02-28T05:15:35.789Z,55.49
2023-02-28T05:18:13.805Z,55.53
2023-02-28T05:20:42.707Z,55.43
2023-02-28T05:23:14.263Z,55.51
2023-02-28T05:25:43.164Z,55.24
2023-02-28T05:28:12.349Z,55.41
2023-02-28T05:30:40.946Z,55.11
2023-02-28T05:33:12.149Z,54.90
2023-02-28T05:35:41.744Z,54.64
2023-02-28T05:38:10.608Z,54.49
2023-02-28T05:40:41.459Z,54.61
2023-02-28T05:43:11.759Z,54.89
2023-02-28T05:45:40.272Z,54.93
2023-02-28T05:48:09.341Z,54.71
2023-02-28T05:50:37.932Z,54.37
2023-02-28T05:53:06.420Z,54.39
2023-02-28T05:55:37.248Z,54.43
2023-02-28T05:58:05.739Z,54.08
2023-02-28T06:00:34.621Z,54.07
2023-02-28T06:03:03.468Z,54.03
2023-02-28T06:05:32.308Z,54.06
2023-02-28T06:08:00.508Z,53.74
2023-02-28T06:10:30.022Z,53.59
2023-02-28T06:13:03.719Z,53.31
2023-02-28T06:15:32.713Z,53.04
2023-02-28T06:18:03.962Z,53.02
2023-02-28T06:20:33.785Z,52.95
2023-02-28T06:23:02.455Z,53.39
2023-02-28T06:25:31.750Z,53.40
2023-02-28T06:28:02.096Z,53.23
2023-02-28T06:30:32.542Z,53.23
2023-02-28T06:33:00.885Z,53.10
2023-02-28T06:35:29.354Z,53.06
2023-02-28T06:37:58.984Z,52.87
2023-02-28T06:40:27.818Z,52.62
2023-02-28T06:42:56.985Z,52.67
2023-02-28T06:45:27.404Z,52.21
2023-02-28T06:47:57.897Z,52.31
2023-02-28T06:50:26.623Z,52.37
2023-02-28T06:52:56.782Z,52.34
2023-02-28T06:55:25.641Z,52.38
2023-02-28T06:57:56.063Z,52.15
2023-02-28T07:00:26.190Z,52.19
2023-02-28T07:02:56.410Z,52.10
2023-02-28T07:05:25.035Z,51.99
2023-02-28T07:07:55.733Z,51.81
2023-02-28T07:10:24.724Z,51.84
2023-02-28T07:12:58.739Z,52.11
2023-02-28T07:15:27.221Z,52.15
2023-02-28T07:17:55.704Z,52.37
2023-02-28T07:20:24.853Z,52.44
2023-02-28T07:22:57.547Z,52.70
2023-02-28T07:25:28.508Z,52.53
2023-02-28T07:27:57.426Z,52.56
2023-02-28T07:30:25.845Z,52.85
2023-02-28T07:32:57.544Z,52.74
2023-02-28T07:35:26.095Z,52.27
2023-02-28T07:37:55.141Z,52.53
2023-02-28T07:40:23.638Z,52.56
2023-02-28T07:42:52.186Z,52.53
2023-02-28T07:45:20.697Z,52.58
2023-02-28T07:47:49.284Z,52.66
2023-02-28T08:03:06.760Z,52.40
2023-02-28T08:05:39.837Z,51.54
2023-02-28T08:08:08.900Z,51.18
2023-02-28T08:10:56.436Z,51.32
2023-02-28T08:13:25.844Z,50.88
2023-02-28T08:15:56.391Z,50.76
2023-02-28T08:18:26.315Z,50.85
2023-02-28T08:20:54.938Z,51.32
2023-02-28T08:23:24.921Z,51.26
2023-02-28T08:25:56.914Z,51.20
2023-02-28T08:28:27.840Z,51.40
2023-02-28T08:30:56.543Z,51.19
2023-02-28T08:33:25.579Z,51.17
2023-02-28T08:35:55.723Z,50.83
2023-02-28T08:38:24.560Z,50.59
2023-02-28T08:41:00.238Z,50.45
2023-02-28T08:43:29.692Z,50.17
2023-02-28T08:45:58.491Z,50.23
2023-02-28T08:48:28.134Z,50.08
2023-02-28T08:51:07.223Z,50.76
2023-02-28T08:53:38.444Z,51.00
2023-02-28T08:56:15.015Z,51.10
2023-02-28T08:58:44.623Z,50.91
2023-02-28T09:01:14.902Z,50.41
2023-02-28T09:03:45.266Z,50.08
2023-02-28T09:06:14.810Z,50.29
2023-02-28T09:08:44.108Z,49.97
2023-02-28T09:11:13.615Z,50.31
2023-02-28T09:13:44.101Z,50.55
2023-02-28T09:16:14.536Z,50.60
2023-02-28T09:18:43.774Z,50.02
2023-02-28T09:21:16.611Z,49.74
2023-02-28T09:23:45.453Z,49.47
2023-02-28T09:26:25.980Z,49.68
2023-02-28T09:28:54.854Z,49.72
2023-02-28T09:31:25.642Z,49.53
2023-02-28T09:33:56.157Z,49.58
2023-02-28T09:36:34.507Z,49.56
2023-02-28T09:39:10.715Z,49.31
2023-02-28T09:41:52.081Z,48.82
2023-02-28T09:44:45.115Z,48.48
2023-02-28T09:47:29.518Z,48.32
2023-02-28T09:49:59.489Z,48.20
2023-02-28T09:52:31.766Z,48.13
2023-02-28T09:55:25.506Z,48.15
2023-02-28T09:57:55.235Z,47.65
2023-02-28T10:00:37.650Z,47.80
2023-02-28T10:03:28.000Z,47.26
2023-02-28T10:06:17.485Z,47.35
2023-02-28T10:08:53.302Z,47.61
2023-02-28T10:11:24.748Z,47.67
2023-02-28T10:14:03.590Z,47.58
2023-02-28T10:16:37.288Z,47.68
2023-02-28T10:19:16.540Z,48.08
2023-02-28T10:22:01.313Z,47.91
2023-02-28T10:24:34.467Z,47.15
2023-02-28T10:27:13.719Z,47.08
2023-02-28T10:29:53.420Z,47.19
2023-02-28T10:32:32.660Z,47.49
2023-02-28T10:35:10.356Z,47.12
2023-02-28T10:37:39.974Z,47.15
2023-02-28T10:40:36.891Z,46.92
2023-02-28T10:43:15.481Z,47.26
2023-02-28T10:46:04.478Z,47.00
2023-02-28T10:48:40.716Z,46.51
2023-02-28T10:51:14.179Z,46.36
2023-02-28T10:53:59.730Z,46.18
2023-02-28T10:56:29.904Z,46.17
2023-02-28T10:59:16.664Z,46.17
2023-02-28T11:01:47.445Z,46.16
2023-02-28T11:04:23.104Z,45.96
2023-02-28T11:07:05.865Z,45.97
2023-02-28T11:09:40.928Z,46.27
2023-02-28T11:12:23.773Z,46.39
2023-02-28T11:15:00.631Z,46.01
2023-02-28T11:17:31.139Z,45.69
2023-02-28T11:20:09.266Z,45.71
2023-02-28T11:22:40.119Z,45.66
2023-02-28T11:25:28.439Z,45.72
2023-02-28T11:28:07.574Z,45.38
2023-02-28T11:30:40.751Z,45.08
2023-02-28T11:33:28.698Z,45.21
2023-02-28T11:36:05.828Z,44.85
2023-02-28T11:38:35.763Z,44.71
2023-02-28T11:41:10.958Z,44.68
2023-02-28T11:43:57.917Z,44.54
2023-02-28T11:46:37.256Z,44.24
2023-02-28T11:49:15.192Z,44.21
2023-02-28T11:52:09.876Z,44.09
2023-02-28T11:55:03.317Z,43.68
2023-02-28T11:58:02.483Z,43.42
2023-02-28T12:00:41.821Z,43.51
2023-02-28T12:03:42.968Z,43.57
2023-02-28T12:06:31.845Z,43.48
2023-02-28T12:09:36.458Z,43.27
2023-02-28T12:12:26.255Z,43.31
2023-02-28T12:27:39.606Z,43.68
2023-02-28T12:30:20.188Z,42.62
2023-02-28T12:33:13.684Z,42.70
2023-02-28T12:35:49.699Z,42.71
2023-02-28T12:38:23.398Z,42.85
2023-02-28T12:41:04.254Z,42.79
2023-02-28T12:43:35.279Z,42.73
2023-02-28T12:46:23.013Z,42.34
2023-02-28T12:48:59.038Z,42.53
2023-02-28T12:51:27.962Z,42.56
2023-02-28T12:54:14.253Z,42.58
2023-02-28T12:56:54.373Z,42.47
2023-02-28T12:59:42.519Z,42.65
2023-02-28T13:02:37.416Z,42.73
2023-02-28T13:05:39.944Z,42.47
2023-02-28T13:08:38.352Z,42.40
2023-02-28T13:11:13.167Z,42.59
2023-02-28T13:13:49.763Z,42.60
2023-02-28T13:16:21.468Z,42.67
2023-02-28T13:18:49.820Z,42.83
2023-02-28T13:21:26.097Z,42.69
2023-02-28T13:24:01.517Z,43.06
2023-02-28T13:26:38.913Z,42.42
2023-02-28T13:29:19.312Z,43.08
2023-02-28T13:32:09.862Z,43.29
2023-02-28T13:34:50.746Z,42.70
2023-02-28T13:37:25.924Z,42.94
2023-02-28T13:39:58.043Z,42.77
2023-02-28T13:42:32.299Z,42.84
2023-02-28T13:45:03.748Z,42.97
2023-02-28T13:47:50.640Z,43.03
2023-02-28T13:50:25.078Z,43.32
2023-02-28T13:53:01.975Z,43.23
2023-02-28T13:55:52.165Z,43.10
2023-02-28T13:58:36.770Z,43.67
2023-02-28T14:01:40.544Z,43.46
2023-02-28T14:04:34.016Z,43.58
2023-02-28T14:07:02.935Z,43.68
2023-02-28T14:09:40.058Z,44.27
2023-02-28T14:12:47.672Z,44.07
2023-02-28T14:16:08.654Z,44.44
2023-02-28T14:18:38.583Z,44.19
2023-02-28T14:21:20.848Z,44.13
2023-02-28T14:24:11.212Z,44.15
2023-02-28T14:26:55.569Z,43.92
2023-02-28T14:29:29.946Z,43.93
2023-02-28T14:32:20.154Z,44.32
2023-02-28T14:34:53.451Z,44.53
2023-02-28T14:37:26.727Z,44.33
2023-02-28T14:39:54.941Z,44.14
2023-02-28T14:42:30.179Z,44.53
2023-02-28T14:44:58.532Z,44.84
2023-02-28T14:47:32.873Z,45.14
2023-02-28T14:50:04.948Z,45.47
2023-02-28T14:52:33.979Z,45.32
2023-02-28T14:55:09.188Z,45.02
2023-02-28T14:57:42.249Z,45.06
2023-02-28T15:00:30.367Z,45.40
2023-02-28T15:02:59.960Z,45.57
2023-02-28T15:05:30.978Z,45.63
2023-02-28T15:08:17.981Z,45.88
2023-02-28T15:10:57.152Z,45.78
2023-02-28T15:13:48.269Z,45.85
2023-02-28T15:16:18.390Z,46.32
2023-02-28T15:19:08.283Z,46.31
2023-02-28T15:21:39.189Z,46.49
2023-02-28T15:24:15.404Z,46.95
2023-02-28T15:26:47.118Z,47.22
2023-02-28T15:29:21.882Z,47.43
2023-02-28T15:32:07.414Z,47.59
2023-02-28T15:34:43.831Z,47.90
2023-02-28T15:37:28.357Z,47.93
2023-02-28T15:39:57.734Z,48.19
2023-02-28T15:42:30.968Z,48.43
2023-02-28T15:45:01.151Z,48.68
2023-02-28T15:47:31.053Z,48.92
2023-02-28T15:50:02.018Z,49.26
2023-02-28T15:52:45.900Z,49.36
2023-02-28T15:55:22.770Z,49.64
2023-02-28T15:57:53.542Z,49.86
2023-02-28T16:00:23.901Z,50.24
2023-02-28T16:02:52.593Z,50.26
2023-02-28T16:05:33.105Z,50.52
2023-02-28T16:08:21.729Z,50.68
2023-02-28T16:10:51.017Z,50.85
2023-02-28T16:13:19.534Z,51.08
2023-02-28T16:15:52.618Z,51.13
2023-02-28T16:18:21.968Z,51.11
2023-02-28T16:20:50.271Z,51.42
2023-02-28T16:23:18.661Z,51.40
2023-02-28T16:25:49.991Z,51.60
2023-02-28T16:28:21.267Z,51.64
2023-02-28T16:30:50.601Z,51.78
2023-02-28T16:33:22.605Z,52.08
2023-02-28T16:35:52.175Z,52.00
2023-02-28T16:38:20.852Z,52.16
2023-02-28T16:40:53.850Z,52.42
2023-02-28T16:43:24.989Z,52.72
2023-02-28T16:46:01.267Z,52.55
2023-02-28T16:48:31.994Z,52.91
2023-02-28T16:51:05.524Z,52.93
2023-02-28T16:53:34.577Z,52.99
2023-02-28T16:56:03.365Z,53.38
2023-02-28T16:58:32.125Z,53.70
2023-02-28T17:01:04.986Z,53.63
2023-02-28T17:03:34.359Z,53.84
2023-02-28T17:06:02.880Z,53.86
2023-02-28T17:08:33.758Z,54.03
2023-02-28T17:11:05.970Z,53.74
2023-02-28T17:13:39.138Z,53.47
2023-02-28T17:16:21.942Z,53.80
2023-02-28T17:18:50.684Z,54.03
2023-02-28T17:21:19.704Z,54.28
2023-02-28T17:23:48.340Z,54.28
2023-02-28T17:26:25.853Z,54.35
2023-02-28T17:28:56.928Z,54.32
2023-02-28T17:31:26.382Z,54.67
2023-02-28T17:33:57.984Z,54.74
2023-02-28T17:36:27.205Z,55.14
2023-02-28T17:38:59.667Z,55.38
2023-02-28T17:41:32.141Z,55.16
2023-02-28T17:44:01.219Z,55.31
2023-02-28T17:46:30.042Z,55.47
2023-02-28T17:49:00.813Z,55.60
2023-02-28T17:51:29.236Z,55.56
2023-02-28T17:53:57.725Z,55.78
2023-02-28T17:56:26.767Z,56.02
2023-02-28T17:58:58.154Z,56.29
2023-02-28T18:01:27.256Z,56.37
2023-02-28T18:03:55.777Z,56.54
2023-02-28T18:06:26.071Z,56.91
2023-02-28T18:08:55.036Z,57.00
2023-02-28T18:11:42.599Z,57.04
2023-02-28T18:14:11.193Z,57.19
2023-02-28T18:16:39.615Z,57.25
2023-02-28T18:19:17.765Z,57.57
2023-02-28T18:21:48.203Z,57.75
2023-02-28T18:24:18.840Z,57.66
2023-02-28T18:26:47.258Z,57.89
2023-02-28T18:29:22.966Z,57.75
2023-02-28T18:31:52.009Z,57.83
2023-02-28T18:34:21.457Z,57.77
2023-02-28T18:36:50.872Z,58.01
2023-02-28T18:39:19.776Z,57.96
2023-02-28T18:41:48.612Z,57.93
2023-02-28T18:44:20.977Z,58.10
2023-02-28T18:46:53.260Z,57.90
2023-02-28T18:49:25.084Z,57.96
2023-02-28T18:52:11.104Z,58.11
2023-02-28T18:54:53.213Z,57.98
2023-02-28T18:57:30.328Z,57.97
2023-02-28T19:00:13.788Z,58.13
2023-02-28T19:02:48.194Z,58.16
2023-02-28T19:05:37.567Z,58.16
2023-02-28T19:08:17.844Z,58.12
2023-02-28T19:11:07.193Z,58.04
2023-02-28T19:14:08.176Z,58.05
2023-02-28T19:16:53.353Z,57.95
2023-02-28T19:19:45.197Z,58.09
2023-02-28T19:22:47.203Z,57.93
2023-02-28T19:25:49.169Z,57.83
2023-02-28T19:28:33.834Z,57.81
2023-02-28T19:31:37.684Z,57.86
2023-02-28T19:34:08.243Z,57.88
2023-02-28T19:36:36.844Z,57.86
2023-02-28T19:39:05.605Z,57.94
2023-02-28T19:41:33.902Z,57.96
2023-02-28T19:44:02.132Z,57.86
2023-02-28T19:46:31.268Z,58.06
2023-02-28T19:48:59.504Z,57.94
2023-02-28T19:51:28.892Z,58.12
2023-02-28T19:54:02.803Z,58.30
2023-02-28T19:56:31.175Z,58.34
2023-02-28T19:58:59.864Z,58.50
2023-02-28T20:01:30.582Z,58.30
2023-02-28T20:03:59.106Z,58.48
2023-02-28T20:06:27.455Z,58.66
2023-02-28T20:08:55.601Z,58.52
2023-02-28T20:11:24.036Z,58.74
2023-02-28T20:13:53.542Z,58.35
2023-02-28T20:16:24.517Z,58.39
2023-02-28T20:18:52.784Z,58.13
2023-02-28T20:21:21.464Z,58.22
2023-02-28T20:23:49.941Z,58.30
2023-02-28T20:26:21.436Z,58.20
2023-02-28T20:28:49.701Z,58.06
2023-02-28T20:31:23.264Z,58.19
2023-02-28T20:33:51.804Z,58.05
2023-02-28T20:36:21.481Z,58.05
2023-02-28T20:38:51.814Z,57.94
2023-02-28T20:41:21.539Z,58.22
2023-02-28T20:43:55.071Z,58.13
2023-02-28T20:46:26.258Z,58.09
2023-02-28T20:48:54.870Z,57.95
2023-02-28T20:51:23.885Z,58.20
2023-02-28T20:53:53.265Z,58.27
2023-02-28T20:56:23.857Z,58.26
2023-02-28T20:58:53.315Z,58.20
2023-02-28T21:01:26.377Z,58.40
2023-02-28T21:03:56.987Z,58.37
2023-02-28T21:06:26.927Z,58.15
2023-02-28T21:08:58.621Z,58.56
2023-02-28T21:11:28.967Z,58.41
2023-02-28T21:14:02.149Z,58.63
2023-02-28T21:16:31.090Z,58.77
2023-02-28T21:19:05.714Z,58.87
2023-02-28T21:21:39.205Z,58.99
2023-02-28T21:24:07.872Z,59.05
2023-02-28T21:26:36.565Z,58.99
2023-02-28T21:29:06.320Z,59.12
2023-02-28T21:31:35.625Z,59.11
2023-02-28T21:34:07.304Z,59.14
2023-02-28T21:36:41.122Z,59.18
2023-02-28T21:39:25.997Z,59.17
2023-02-28T21:41:54.824Z,59.56
2023-02-28T21:44:23.484Z,59.69
2023-02-28T21:46:55.349Z,59.97
2023-02-28T21:49:24.224Z,59.98
2023-02-28T21:51:56.284Z,60.09
2023-02-28T21:54:25.076Z,60.12
2023-02-28T21:56:53.434Z,60.34
2023-02-28T21:59:22.263Z,60.25
2023-02-28T22:01:51.849Z,60.49
2023-02-28T22:04:21.725Z,60.56
2023-02-28T22:06:53.823Z,60.77
2023-02-28T22:09:21.975Z,60.70
2023-02-28T22:11:50.581Z,60.73
2023-02-28T22:14:20.080Z,60.70
2023-02-28T22:16:55.163Z,60.84
2023-02-28T22:19:25.200Z,60.80
2023-02-28T22:21:54.380Z,60.81
2023-02-28T22:24:24.883Z,60.81
2023-02-28T22:26:53.670Z,60.78
2023-02-28T22:29:22.508Z,60.92
2023-02-28T22:31:51.137Z,60.72
2023-02-28T22:34:20.418Z,60.74
2023-02-28T22:36:49.675Z,60.83
2023-02-28T22:39:18.112Z,60.77
2023-02-28T22:41:46.388Z,60.79
2023-02-28T22:44:23.251Z,60.93
2023-02-28T22:46:55.171Z,60.79
2023-02-28T22:49:23.477Z,61.07
2023-02-28T22:51:53.045Z,61.02
2023-02-28T22:54:21.313Z,61.08
2023-02-28T22:56:50.397Z,61.08
2023-02-28T22:59:19.271Z,61.17
2023-02-28T23:01:54.659Z,61.16
2023-02-28T23:04:27.270Z,61.05
2023-02-28T23:07:00.925Z,61.11
2023-02-28T23:09:29.654Z,61.16
2023-02-28T23:12:02.379Z,61.17
2023-02-28T23:14:30.917Z,61.23
2023-02-28T23:16:59.495Z,61.22
2023-02-28T23:19:32.172Z,61.34
2023-02-28T23:22:01.870Z,61.17
2023-02-28T23:24:31.662Z,61.31
2023-02-28T23:27:02.493Z,61.33
2023-02-28T23:29:30.981Z,61.33
2023-02-28T23:31:59.264Z,61.66
2023-02-28T23:34:32.324Z,61.60
2023-02-28T23:37:02.173Z,61.61
2023-02-28T23:39:31.520Z,61.66
2023-02-28T23:41:59.928Z,61.65
2023-02-28T23:44:28.366Z,61.72
2023-02-28T23:46:56.821Z,61.59
2023-02-28T23:49:25.952Z,61.51
2023-02-28T23:51:54.708Z,61.60
2023-02-28T23:54:25.435Z,61.65
2023-02-28T23:56:55.475Z,61.66
2023-02-28T23:59:26.120Z,61.89
